Whitehall, Ohio
Current Conditions -  °F | °C
As of 2:51 AM on Saturday 29 Nov 2014 (Local Time) from KCMH Reporting Station
Overcast Overcast  
Wind Chill: 26°   Ceiling: 14000
Heat Index: 32°   Visibility: 10mi
Dew Point: 18°   Wind: 6mph
Humidity: 56%   Direction: 140°SE
Pressure: 30.1"   Gusts: NA
Location:  39.97°N, 82.88°W
Report Text: KCMH 290751Z 14005KT 10SM OVC140 00/M08 A3010 RMK AO2 SLP203 T00001078
Loading
Personal Weather Stations






























Interactive Weather Map New forecast layout! Learn more

10-Day Weather Forecast

Advertisements
Track Severe Weather on mobile